createdAt,value
2023-02-03T00:02:03.719Z,4.60
2023-02-03T00:07:01.015Z,4.65
2023-02-03T00:11:58.218Z,3.67
2023-02-03T00:16:55.518Z,3.15
2023-02-03T00:21:52.850Z,2.95
2023-02-03T00:26:50.369Z,3.58
2023-02-03T00:31:47.705Z,2.95
2023-02-03T00:36:46.898Z,3.25
2023-02-03T00:41:44.331Z,2.83
2023-02-03T00:46:41.951Z,2.70
2023-02-03T00:51:39.275Z,3.17
2023-02-03T00:56:36.839Z,4.70
2023-02-03T01:01:35.829Z,5.03
2023-02-03T01:06:33.426Z,5.95
2023-02-03T01:11:32.321Z,5.97
2023-02-03T01:16:38.349Z,6.45
2023-02-03T01:21:36.599Z,5.70
2023-02-03T01:26:34.093Z,4.72
2023-02-03T01:31:39.967Z,5.65
2023-02-03T01:36:40.557Z,7.07
2023-02-03T01:41:39.834Z,6.72
2023-02-03T01:46:49.960Z,7.72
2023-02-03T01:51:47.666Z,6.82
2023-02-03T01:56:51.694Z,6.60
2023-02-03T02:01:50.053Z,6.45
2023-02-03T02:06:48.991Z,6.72
2023-02-03T02:11:46.290Z,6.75
2023-02-03T02:17:11.975Z,5.65
2023-02-03T02:22:35.518Z,6.18
2023-02-03T02:27:54.392Z,6.43
2023-02-03T02:33:16.325Z,6.63
2023-02-03T02:38:26.921Z,6.95
2023-02-03T02:43:38.765Z,6.50
2023-02-03T02:49:22.134Z,6.20
2023-02-03T02:54:22.856Z,6.03
2023-02-03T02:59:20.906Z,8.15
2023-02-03T03:04:23.372Z,7.43
2023-02-03T03:09:40.441Z,7.50
2023-02-03T03:14:45.007Z,7.60
2023-02-03T03:19:48.751Z,8.55
2023-02-03T03:24:50.858Z,8.00
2023-02-03T03:29:55.009Z,9.35
2023-02-03T03:34:53.113Z,9.02
2023-02-03T03:39:54.597Z,10.02
2023-02-03T03:44:58.309Z,11.35
2023-02-03T03:49:57.019Z,9.23
2023-02-03T03:54:55.995Z,10.18
2023-02-03T03:59:54.475Z,9.88
2023-02-03T04:04:53.268Z,10.38
2023-02-03T04:09:50.509Z,11.52
2023-02-03T04:14:47.784Z,11.40
2023-02-03T04:19:45.052Z,11.48
2023-02-03T04:24:42.312Z,13.05
2023-02-03T04:29:39.539Z,11.95
2023-02-03T04:34:36.875Z,13.32
2023-02-03T04:39:35.251Z,13.15
2023-02-03T04:44:33.550Z,13.13
2023-02-03T04:49:31.173Z,13.00
2023-02-03T04:54:29.498Z,13.20
2023-02-03T04:59:27.892Z,14.30
2023-02-03T05:04:29.533Z,12.23
2023-02-03T05:09:27.197Z,12.00
2023-02-03T05:14:26.080Z,13.57
2023-02-03T05:19:24.739Z,13.52
2023-02-03T05:24:22.280Z,9.80
2023-02-03T05:29:19.505Z,13.18
2023-02-03T05:34:16.801Z,12.70
2023-02-03T05:39:14.031Z,12.80
2023-02-03T05:44:11.355Z,12.20
2023-02-03T05:49:08.739Z,12.57
2023-02-03T05:54:06.923Z,11.65
2023-02-03T05:59:04.573Z,14.07
2023-02-03T06:04:02.928Z,13.45
2023-02-03T06:09:05.564Z,13.15
2023-02-03T06:14:04.062Z,13.52
2023-02-03T06:19:03.238Z,13.27
2023-02-03T06:24:00.648Z,12.52
2023-02-03T06:28:57.863Z,13.75
2023-02-03T06:33:57.409Z,11.60
2023-02-03T06:38:54.896Z,12.43
2023-02-03T06:43:52.199Z,9.70
2023-02-03T06:48:49.497Z,9.82
2023-02-03T06:53:46.758Z,10.38
2023-02-03T06:58:45.076Z,9.98
2023-02-03T07:03:42.705Z,11.00
2023-02-03T07:08:40.168Z,11.90
2023-02-03T07:13:37.903Z,11.30
2023-02-03T07:18:46.939Z,10.80
2023-02-03T07:23:48.727Z,10.02
2023-02-03T07:28:46.122Z,10.95
2023-02-03T07:33:43.709Z,10.05
2023-02-03T07:38:41.172Z,9.52
2023-02-03T07:43:38.631Z,11.45
2023-02-03T07:48:36.419Z,11.02
2023-02-03T07:53:33.805Z,12.82
2023-02-03T07:58:32.014Z,11.88
2023-02-03T08:03:29.243Z,12.77
2023-02-03T08:08:26.685Z,9.70
2023-02-03T08:13:24.034Z,11.35
2023-02-03T08:18:21.405Z,10.10
2023-02-03T08:23:18.665Z,8.63
2023-02-03T08:28:16.514Z,10.52
2023-02-03T08:33:15.651Z,9.13
2023-02-03T08:38:13.129Z,9.90
2023-02-03T08:43:11.445Z,9.50
2023-02-03T08:48:08.847Z,8.93
2023-02-03T08:53:06.190Z,9.68
2023-02-03T08:58:03.573Z,8.57
2023-02-03T09:03:00.897Z,9.02
2023-02-03T09:07:58.286Z,9.23
2023-02-03T09:12:56.527Z,8.32
2023-02-03T09:17:55.569Z,9.13
2023-02-03T09:22:55.130Z,9.98
2023-02-03T09:27:52.547Z,8.67
2023-02-03T09:32:54.587Z,8.43
2023-02-03T09:37:51.788Z,9.02
2023-02-03T09:43:27.724Z,7.30
2023-02-03T09:48:32.628Z,8.07
2023-02-03T09:53:48.876Z,6.85
2023-02-03T09:58:46.357Z,8.13
2023-02-03T10:03:52.041Z,7.22
2023-02-03T10:09:24.643Z,7.28
2023-02-03T10:14:24.876Z,6.80
2023-02-03T10:24:59.225Z,6.22
2023-02-03T10:30:24.756Z,6.57
2023-02-03T10:35:30.709Z,6.57
2023-02-03T10:40:29.591Z,6.47
2023-02-03T10:45:27.455Z,4.75
2023-02-03T10:50:32.094Z,5.50
2023-02-03T10:55:31.743Z,5.78
2023-02-03T11:00:30.767Z,6.60
2023-02-03T11:05:28.347Z,6.00
2023-02-03T11:10:30.027Z,6.22
2023-02-03T11:15:27.779Z,5.20
2023-02-03T11:20:29.024Z,5.28
2023-02-03T11:25:33.287Z,5.28
2023-02-03T11:30:31.029Z,5.28
2023-02-03T11:35:31.083Z,6.18
2023-02-03T11:45:44.834Z,4.65
2023-02-03T11:51:06.752Z,4.80
2023-02-03T11:56:10.094Z,5.57
2023-02-03T12:01:23.028Z,5.07
2023-02-03T12:06:29.797Z,4.82
2023-02-03T12:12:08.296Z,4.90
2023-02-03T12:17:14.744Z,5.53
2023-02-03T12:22:49.062Z,5.40
2023-02-03T12:28:01.114Z,4.32
2023-02-03T12:33:04.665Z,5.15
2023-02-03T12:38:08.059Z,5.25
2023-02-03T12:43:17.141Z,5.00
2023-02-03T12:48:21.308Z,4.65
2023-02-03T12:53:32.280Z,5.15
2023-02-03T12:58:41.570Z,6.20
2023-02-03T13:03:49.523Z,6.70
2023-02-03T13:09:28.665Z,6.05
2023-02-03T13:14:36.796Z,5.63
2023-02-03T13:20:02.651Z,5.05
2023-02-03T13:25:24.712Z,5.13
2023-02-03T13:30:53.765Z,5.43
2023-02-03T13:35:51.088Z,4.97
2023-02-03T13:40:56.593Z,5.15
2023-02-03T13:45:54.433Z,5.45
2023-02-03T13:51:03.834Z,4.75
2023-02-03T13:56:03.825Z,5.00
2023-02-03T14:01:05.140Z,5.03
2023-02-03T14:06:03.783Z,5.93
2023-02-03T14:11:34.960Z,6.13
2023-02-03T14:21:52.689Z,5.97
2023-02-03T14:26:55.918Z,6.00
2023-02-03T14:32:16.167Z,4.82
2023-02-03T14:37:22.495Z,5.38
2023-02-03T14:42:36.208Z,5.40
2023-02-03T14:47:51.888Z,5.88
2023-02-03T14:53:21.360Z,5.25
2023-02-03T14:58:48.235Z,5.32
2023-02-03T15:04:11.611Z,4.80
2023-02-03T15:09:48.751Z,5.03
2023-02-03T15:14:46.562Z,5.30
2023-02-03T15:19:43.860Z,5.75
2023-02-03T15:24:41.188Z,5.20
2023-02-03T15:29:41.480Z,5.32
2023-02-03T15:40:00.540Z,6.05
2023-02-03T15:45:06.344Z,6.40
2023-02-03T15:50:24.515Z,6.50
2023-02-03T15:55:42.319Z,7.72
2023-02-03T16:00:41.320Z,7.85
2023-02-03T16:05:38.636Z,8.20
2023-02-03T16:10:36.039Z,9.38
2023-02-03T16:15:34.459Z,9.27
2023-02-03T16:20:33.556Z,9.75
2023-02-03T16:25:33.964Z,10.65
2023-02-03T16:30:50.017Z,11.32
2023-02-03T16:36:05.722Z,17.92
2023-02-03T16:41:31.802Z,14.73
2023-02-03T16:46:47.789Z,12.02
2023-02-03T16:51:44.985Z,10.40
2023-02-03T16:56:42.693Z,9.80
2023-02-03T17:01:40.116Z,9.48
2023-02-03T17:06:39.592Z,9.35
2023-02-03T17:11:36.915Z,10.52
2023-02-03T17:16:34.555Z,7.32
2023-02-03T17:21:31.968Z,6.75
2023-02-03T17:26:29.665Z,5.40
2023-02-03T17:31:27.039Z,5.78
2023-02-03T17:36:24.661Z,5.85
2023-02-03T17:57:07.286Z,5.15
2023-02-03T18:02:04.921Z,7.30
2023-02-03T18:07:02.371Z,8.73
2023-02-03T18:12:00.093Z,8.32
2023-02-03T18:16:57.645Z,8.52
2023-02-03T18:21:55.079Z,8.75
2023-02-03T18:26:52.818Z,8.60
2023-02-03T18:31:50.364Z,9.40
2023-02-03T18:36:47.778Z,8.20
2023-02-03T18:42:00.381Z,9.75
2023-02-03T18:47:06.140Z,9.02
2023-02-03T18:52:03.715Z,8.80
2023-02-03T18:57:03.053Z,7.78
2023-02-03T19:02:01.448Z,9.35
2023-02-03T19:06:58.980Z,8.15
2023-02-03T19:11:59.053Z,9.15
2023-02-03T19:16:56.342Z,8.35
2023-02-03T19:21:54.315Z,8.38
2023-02-03T19:26:51.579Z,8.13
2023-02-03T19:31:48.916Z,8.43
2023-02-03T19:36:47.245Z,9.30
2023-02-03T19:41:48.376Z,8.48
2023-02-03T19:46:45.852Z,7.63
2023-02-03T19:51:44.173Z,11.13
2023-02-03T19:56:42.436Z,11.13
2023-02-03T20:01:39.877Z,22.83
2023-02-03T20:06:37.469Z,9.40
2023-02-03T20:11:34.809Z,9.85
2023-02-03T20:16:32.490Z,11.35
2023-02-03T20:21:30.067Z,10.98
2023-02-03T20:26:27.962Z,10.98
2023-02-03T20:31:25.427Z,10.65
2023-02-03T20:36:22.847Z,9.93
2023-02-03T20:41:20.316Z,9.85
2023-02-03T20:46:19.833Z,11.55
2023-02-03T20:51:19.035Z,10.50
2023-02-03T20:56:21.535Z,10.77
2023-02-03T21:01:21.303Z,10.27
2023-02-03T21:06:20.447Z,9.45
2023-02-03T21:11:21.019Z,8.67
2023-02-03T21:16:22.239Z,9.20
2023-02-03T21:21:33.396Z,8.05
2023-02-03T21:26:34.175Z,9.10
2023-02-03T21:31:35.192Z,8.30
2023-02-03T21:36:37.854Z,8.35
2023-02-03T21:41:35.747Z,8.70
2023-02-03T21:46:33.727Z,7.75
2023-02-03T21:51:35.138Z,4.20
2023-02-03T21:56:41.559Z,1.83
2023-02-03T22:01:42.637Z,2.20
2023-02-03T22:06:50.373Z,1.83
2023-02-03T22:11:48.343Z,2.25
2023-02-03T22:16:45.696Z,1.55
2023-02-03T22:21:43.127Z,1.38
2023-02-03T22:26:40.509Z,1.55
2023-02-03T22:31:37.863Z,1.13
2023-02-03T22:36:35.225Z,1.00
2023-02-03T22:41:32.708Z,0.80
2023-02-03T22:46:30.043Z,1.20
2023-02-03T22:51:27.630Z,1.10
2023-02-03T22:56:25.088Z,1.20
2023-02-03T23:01:22.419Z,1.20
2023-02-03T23:06:19.696Z,1.20
2023-02-03T23:11:17.119Z,1.42
2023-02-03T23:16:17.526Z,1.65
2023-02-03T23:21:14.911Z,1.20
2023-02-03T23:26:12.280Z,2.55
2023-02-03T23:31:09.735Z,1.10
2023-02-03T23:36:07.563Z,0.70
2023-02-03T23:41:04.982Z,0.80
2023-02-03T23:46:02.397Z,0.93
2023-02-03T23:50:59.674Z,0.90
2023-02-03T23:55:56.955Z,0.80
